Benson, United Kingdom
Current Conditions -  °F | °C
As of 3:50 AM on Saturday 01 Nov 2014 (Local Time) from EGUB Reporting Station
Broken Clouds Broken Clouds  
Wind Chill: 63°   Ceiling: 3900
Heat Index: 63°   Visibility: 6mi
Dew Point: 59°   Wind: 10mph
Humidity: 88%   Direction: 160°SSE
Pressure: 29.91"   Gusts: NA
Location:  51.62°N, 1.11°W
Report Text: EGUB 010350Z AUTO 16009KT 9999 // FEW013/// SCT018/// BKN039/// 17/15 Q1013
Loading
Personal Weather Stations






























Interactive Weather Map
Tropical Storm Tracking
New forecast layout! Learn more

10-Day Weather Forecast

Advertisements
Track Severe Weather on mobile